createdAt,value
2019-02-21T00:01:22.195Z,4.75
2019-02-21T00:03:48.051Z,4.78
2019-02-21T00:06:13.981Z,4.71
2019-02-21T00:08:40.206Z,4.73
2019-02-21T00:11:06.132Z,4.74
2019-02-21T00:13:32.109Z,4.69
2019-02-21T00:15:57.956Z,4.66
2019-02-21T00:18:23.792Z,4.58
2019-02-21T00:20:49.636Z,4.55
2019-02-21T00:23:15.490Z,4.59
2019-02-21T00:25:41.455Z,4.55
2019-02-21T00:28:07.402Z,4.55
2019-02-21T00:30:35.501Z,4.54
2019-02-21T00:33:01.110Z,4.57
2019-02-21T00:35:27.006Z,4.59
2019-02-21T00:37:53.013Z,4.49
2019-02-21T00:40:18.940Z,4.52
2019-02-21T00:42:44.811Z,4.54
2019-02-21T00:45:10.949Z,4.50
2019-02-21T00:47:36.786Z,4.43
2019-02-21T00:50:03.536Z,4.46
2019-02-21T00:52:31.412Z,4.39
2019-02-21T00:54:57.243Z,4.37
2019-02-21T00:57:23.068Z,4.38
2019-02-21T00:59:50.871Z,4.49
2019-02-21T01:02:17.003Z,4.40
2019-02-21T01:04:42.935Z,4.40
2019-02-21T01:07:08.938Z,4.35
2019-02-21T01:09:34.796Z,4.47
2019-02-21T01:12:00.647Z,4.44
2019-02-21T01:14:26.525Z,4.47
2019-02-21T01:16:52.353Z,4.50
2019-02-21T01:19:18.168Z,4.56
2019-02-21T01:21:44.167Z,4.50
2019-02-21T01:24:10.118Z,4.50
2019-02-21T01:26:35.967Z,4.57
2019-02-21T01:29:01.839Z,4.52
2019-02-21T01:31:27.780Z,4.46
2019-02-21T01:33:53.760Z,4.41
2019-02-21T01:36:19.810Z,4.39
2019-02-21T01:38:45.667Z,4.26
2019-02-21T01:41:11.598Z,4.22
2019-02-21T01:43:37.561Z,4.14
2019-02-21T01:46:03.526Z,4.16
2019-02-21T01:48:29.710Z,4.12
2019-02-21T01:50:55.709Z,4.10
2019-02-21T01:53:21.706Z,4.11
2019-02-21T01:55:47.651Z,4.18
2019-02-21T01:58:13.486Z,4.19
2019-02-21T02:00:39.492Z,4.19
2019-02-21T02:03:05.617Z,4.14
2019-02-21T02:05:31.548Z,4.07
2019-02-21T02:07:57.634Z,4.13
2019-02-21T02:10:23.721Z,4.11
2019-02-21T02:12:49.645Z,4.20
2019-02-21T02:15:15.713Z,4.18
2019-02-21T02:17:41.573Z,4.14
2019-02-21T02:20:07.723Z,4.07
2019-02-21T02:22:33.672Z,4.07
2019-02-21T02:24:59.512Z,4.14
2019-02-21T02:27:25.443Z,4.18
2019-02-21T02:29:51.281Z,4.12
2019-02-21T02:32:17.241Z,4.02
2019-02-21T02:34:43.326Z,3.97
2019-02-21T02:37:09.172Z,4.01
2019-02-21T02:39:35.005Z,4.07
2019-02-21T02:42:00.929Z,4.05
2019-02-21T02:44:26.789Z,3.89
2019-02-21T02:46:52.672Z,4.00
2019-02-21T02:49:18.519Z,3.97
2019-02-21T02:51:44.334Z,3.95
2019-02-21T02:54:10.354Z,3.90
2019-02-21T02:56:36.295Z,3.81
2019-02-21T02:59:02.241Z,3.86
2019-02-21T03:01:34.883Z,3.93
2019-02-21T03:03:56.414Z,3.88
2019-02-21T03:06:22.277Z,3.80
2019-02-21T03:08:48.146Z,3.91
2019-02-21T03:11:14.091Z,3.86
2019-02-21T03:13:40.032Z,3.88
2019-02-21T03:16:06.080Z,3.99
2019-02-21T03:18:31.971Z,4.00
2019-02-21T03:20:57.935Z,3.92
2019-02-21T03:23:23.826Z,3.75
2019-02-21T03:25:49.651Z,3.71
2019-02-21T03:28:15.590Z,3.70
2019-02-21T03:30:41.559Z,3.77
2019-02-21T03:33:07.492Z,3.81
2019-02-21T03:35:33.349Z,3.80
2019-02-21T03:37:59.240Z,3.73
2019-02-21T03:40:25.169Z,3.76
2019-02-21T03:42:51.000Z,3.70
2019-02-21T03:45:17.184Z,3.75
2019-02-21T03:47:43.137Z,3.74
2019-02-21T03:50:10.076Z,3.74
2019-02-21T03:52:36.071Z,3.68
2019-02-21T03:55:02.539Z,3.62
2019-02-21T03:57:28.382Z,3.50
2019-02-21T03:59:54.474Z,3.55
2019-02-21T04:02:20.468Z,3.63
2019-02-21T04:04:50.293Z,3.62
2019-02-21T04:07:16.297Z,3.52
2019-02-21T04:09:42.338Z,3.56
2019-02-21T04:12:08.221Z,3.58
2019-02-21T04:14:34.187Z,3.58
2019-02-21T04:17:00.043Z,3.59
2019-02-21T04:19:25.890Z,3.50
2019-02-21T04:21:51.948Z,3.57
2019-02-21T04:24:18.017Z,3.41
2019-02-21T04:26:43.963Z,3.41
2019-02-21T04:29:09.833Z,3.45
2019-02-21T04:31:35.874Z,3.52
2019-02-21T04:34:01.768Z,3.44
2019-02-21T04:36:27.634Z,3.45
2019-02-21T04:38:53.498Z,3.48
2019-02-21T04:41:19.574Z,3.53
2019-02-21T04:43:45.430Z,3.45
2019-02-21T04:46:11.235Z,3.45
2019-02-21T04:48:37.215Z,3.33
2019-02-21T04:51:03.156Z,3.30
2019-02-21T04:53:29.051Z,3.28
2019-02-21T04:55:54.896Z,3.18
2019-02-21T04:58:20.754Z,3.28
2019-02-21T05:00:46.732Z,3.30
2019-02-21T05:03:12.565Z,3.28
2019-02-21T05:05:38.476Z,3.31
2019-02-21T05:08:04.417Z,3.40
2019-02-21T05:10:30.290Z,3.34
2019-02-21T05:12:56.172Z,3.28
2019-02-21T05:15:22.043Z,3.29
2019-02-21T05:17:47.978Z,3.17
2019-02-21T05:20:13.823Z,3.27
2019-02-21T05:22:39.687Z,3.33
2019-02-21T05:25:05.868Z,3.32
2019-02-21T05:27:33.257Z,3.25
2019-02-21T05:29:59.208Z,3.14
2019-02-21T05:32:27.037Z,3.24
2019-02-21T05:35:13.135Z,3.09
2019-02-21T05:37:56.216Z,3.09
2019-02-21T05:40:32.992Z,3.07
2019-02-21T05:43:09.850Z,3.03
2019-02-21T05:45:40.601Z,3.02
2019-02-21T05:48:14.285Z,3.02
2019-02-21T05:50:58.726Z,3.10
2019-02-21T05:53:35.299Z,3.10
2019-02-21T05:56:18.172Z,2.96
2019-02-21T05:58:54.931Z,3.02
2019-02-21T06:01:35.096Z,2.92
2019-02-21T06:04:02.963Z,2.92
2019-02-21T06:06:31.040Z,3.11
2019-02-21T06:08:58.828Z,3.16
2019-02-21T06:11:26.572Z,3.18
2019-02-21T06:13:57.605Z,3.22
2019-02-21T06:16:25.350Z,3.22
2019-02-21T06:18:53.133Z,3.22
2019-02-21T06:21:26.760Z,3.27
2019-02-21T06:23:54.589Z,3.22
2019-02-21T06:26:28.337Z,3.21
2019-02-21T06:28:56.212Z,3.19
2019-02-21T06:31:22.105Z,3.16
2019-02-21T06:33:49.497Z,3.16
2019-02-21T06:36:15.571Z,3.29
2019-02-21T06:38:41.500Z,3.35
2019-02-21T06:41:07.371Z,3.47
2019-02-21T06:43:33.270Z,3.51
2019-02-21T06:45:59.117Z,3.57
2019-02-21T06:48:25.184Z,3.49
2019-02-21T06:50:51.092Z,3.57
2019-02-21T06:53:16.956Z,3.56
2019-02-21T06:55:45.510Z,3.70
2019-02-21T06:58:11.520Z,3.66
2019-02-21T07:00:37.454Z,3.70
2019-02-21T07:03:03.353Z,3.74
2019-02-21T07:05:29.510Z,3.82
2019-02-21T07:07:58.877Z,3.88
2019-02-21T07:10:24.855Z,3.95
2019-02-21T07:12:50.916Z,3.97
2019-02-21T07:15:16.931Z,3.95
2019-02-21T07:17:49.409Z,4.03
2019-02-21T07:20:12.920Z,4.10
2019-02-21T07:22:38.521Z,4.15
2019-02-21T07:25:06.850Z,4.20
2019-02-21T07:27:32.662Z,4.30
2019-02-21T07:29:58.593Z,4.38
2019-02-21T07:32:24.488Z,4.49
2019-02-21T07:34:50.305Z,4.63
2019-02-21T07:37:19.013Z,4.77
2019-02-21T07:39:44.126Z,4.82
2019-02-21T07:42:10.058Z,4.84
2019-02-21T07:44:35.896Z,4.95
2019-02-21T07:47:01.769Z,5.04
2019-02-21T07:49:27.713Z,5.19
2019-02-21T07:51:53.625Z,5.36
2019-02-21T07:54:19.447Z,5.49
2019-02-21T07:56:45.493Z,5.58
2019-02-21T07:59:12.273Z,5.77
2019-02-21T08:01:38.650Z,5.76
2019-02-21T08:04:04.608Z,5.87
2019-02-21T08:06:30.513Z,5.89
2019-02-21T08:08:56.421Z,6.09
2019-02-21T08:11:22.439Z,6.11
2019-02-21T08:13:48.452Z,6.26
2019-02-21T08:16:14.502Z,6.26
2019-02-21T08:18:40.366Z,6.46
2019-02-21T08:21:06.219Z,6.56
2019-02-21T08:23:32.570Z,6.57
2019-02-21T08:25:58.791Z,6.47
2019-02-21T08:28:24.616Z,6.49
2019-02-21T08:30:50.443Z,6.60
2019-02-21T08:33:24.018Z,6.71
2019-02-21T08:35:49.860Z,6.80
2019-02-21T08:38:15.917Z,7.00
2019-02-21T08:40:41.789Z,7.15
2019-02-21T08:43:07.626Z,7.31
2019-02-21T08:45:33.738Z,7.42
2019-02-21T08:47:59.601Z,7.52
2019-02-21T08:50:25.554Z,7.69
2019-02-21T08:52:51.520Z,7.76
2019-02-21T08:55:17.552Z,7.86
2019-02-21T08:57:43.530Z,8.02
2019-02-21T09:00:11.988Z,8.16
2019-02-21T09:02:38.025Z,8.29
2019-02-21T09:05:05.702Z,8.38
2019-02-21T09:07:31.584Z,8.44
2019-02-21T09:09:57.612Z,8.56
2019-02-21T09:12:23.567Z,8.75
2019-02-21T09:14:49.605Z,8.93
2019-02-21T09:17:15.529Z,9.05
2019-02-21T09:19:41.482Z,9.09
2019-02-21T09:22:07.478Z,9.06
2019-02-21T09:24:40.018Z,9.25
2019-02-21T09:27:01.270Z,9.29
2019-02-21T09:29:27.267Z,9.54
2019-02-21T09:31:53.122Z,9.62
2019-02-21T09:34:21.510Z,9.56
2019-02-21T09:36:46.887Z,9.60
2019-02-21T09:39:12.724Z,9.79
2019-02-21T09:41:38.770Z,9.67
2019-02-21T09:44:04.887Z,9.63
2019-02-21T09:46:30.828Z,9.71
2019-02-21T09:48:56.906Z,9.82
2019-02-21T09:51:22.747Z,9.78
2019-02-21T09:53:48.688Z,9.84
2019-02-21T09:56:14.640Z,9.97
2019-02-21T09:58:40.485Z,10.21
2019-02-21T10:01:06.405Z,10.33
2019-02-21T10:03:32.229Z,10.43
2019-02-21T10:05:58.054Z,10.61
2019-02-21T10:08:24.073Z,10.48
2019-02-21T10:10:50.025Z,10.68
2019-02-21T10:13:15.890Z,10.57
2019-02-21T10:15:41.755Z,10.76
2019-02-21T10:18:07.582Z,11.01
2019-02-21T10:20:33.535Z,10.85
2019-02-21T10:22:59.628Z,10.87
2019-02-21T10:25:27.274Z,11.04
2019-02-21T10:27:53.226Z,11.16
2019-02-21T10:30:21.054Z,11.22
2019-02-21T10:32:47.104Z,11.08
2019-02-21T10:35:13.199Z,11.15
2019-02-21T10:37:39.164Z,10.97
2019-02-21T10:40:08.088Z,11.11
2019-02-21T10:42:34.183Z,11.11
2019-02-21T10:45:00.036Z,11.35
2019-02-21T10:47:26.070Z,11.51
2019-02-21T10:49:52.154Z,11.52
2019-02-21T10:52:18.084Z,11.47
2019-02-21T10:54:44.059Z,11.80
2019-02-21T10:57:10.002Z,11.67
2019-02-21T10:59:46.299Z,11.62
2019-02-21T11:02:03.828Z,11.65
2019-02-21T11:04:29.771Z,11.81
2019-02-21T11:06:55.668Z,12.09
2019-02-21T11:09:21.682Z,12.15
2019-02-21T11:11:47.696Z,12.01
2019-02-21T11:14:13.596Z,12.29
2019-02-21T11:16:39.451Z,12.13
2019-02-21T11:19:05.406Z,12.17
2019-02-21T11:21:31.661Z,12.31
2019-02-21T11:23:57.523Z,12.40
2019-02-21T11:26:23.598Z,12.47
2019-02-21T11:28:49.562Z,12.27
2019-02-21T11:31:15.490Z,12.44
2019-02-21T11:33:41.551Z,12.72
2019-02-21T11:36:07.580Z,13.01
2019-02-21T11:38:33.555Z,12.94
2019-02-21T11:40:59.505Z,13.01
2019-02-21T11:43:25.563Z,13.05
2019-02-21T11:45:56.364Z,12.84
2019-02-21T11:48:19.482Z,12.77
2019-02-21T11:50:45.313Z,13.11
2019-02-21T11:53:11.230Z,13.36
2019-02-21T11:55:37.047Z,13.50
2019-02-21T11:58:02.877Z,13.55
2019-02-21T12:00:29.456Z,13.53
2019-02-21T12:02:55.419Z,13.55
2019-02-21T12:05:30.564Z,13.74
2019-02-21T12:07:50.046Z,14.02
2019-02-21T12:10:16.102Z,14.03
2019-02-21T12:12:42.091Z,14.05
2019-02-21T12:15:10.119Z,13.73
2019-02-21T12:17:36.054Z,13.48
2019-02-21T12:20:04.128Z,13.94
2019-02-21T12:22:30.164Z,15.45
2019-02-21T12:24:55.999Z,16.60
2019-02-21T12:27:21.994Z,21.84
2019-02-21T12:29:47.823Z,18.48
2019-02-21T12:32:13.916Z,22.12
2019-02-21T12:34:39.840Z,22.03
2019-02-21T12:37:05.794Z,23.04
2019-02-21T12:39:31.667Z,23.02
2019-02-21T12:41:57.504Z,23.77
2019-02-21T12:44:23.450Z,21.26
2019-02-21T12:46:49.316Z,19.75
2019-02-21T12:49:15.150Z,21.16
2019-02-21T12:51:41.005Z,19.80
2019-02-21T12:54:06.888Z,18.27
2019-02-21T12:56:32.838Z,20.56
2019-02-21T12:58:58.785Z,21.96
2019-02-21T13:01:24.699Z,24.32
2019-02-21T13:03:50.653Z,26.18
2019-02-21T13:06:16.603Z,22.04
2019-02-21T13:08:42.485Z,23.28
2019-02-21T13:11:08.314Z,26.48
2019-02-21T13:13:34.385Z,27.63
2019-02-21T13:16:00.367Z,25.19
2019-02-21T13:18:26.345Z,26.24
2019-02-21T13:20:52.355Z,26.04
2019-02-21T13:23:18.287Z,28.08
2019-02-21T13:25:44.130Z,29.71
2019-02-21T13:28:10.033Z,26.79
2019-02-21T13:30:35.897Z,25.88
2019-02-21T13:33:01.825Z,27.66
2019-02-21T13:35:29.371Z,24.65
2019-02-21T13:37:55.383Z,27.29
2019-02-21T13:40:21.559Z,28.27
2019-02-21T13:42:47.405Z,25.85
2019-02-21T13:45:17.264Z,29.56
2019-02-21T13:47:42.261Z,30.37
2019-02-21T13:50:15.493Z,27.09
2019-02-21T13:52:41.423Z,29.31
2019-02-21T13:55:07.985Z,30.66
2019-02-21T13:57:33.871Z,27.59
2019-02-21T13:59:59.915Z,26.78
2019-02-21T14:02:25.901Z,26.66
2019-02-21T14:04:51.718Z,27.07
2019-02-21T14:07:17.544Z,28.62
2019-02-21T14:09:43.433Z,26.51
2019-02-21T14:12:09.298Z,25.15
2019-02-21T14:14:35.150Z,25.51
2019-02-21T14:17:05.104Z,24.53
2019-02-21T14:19:30.930Z,28.38
2019-02-21T14:21:56.993Z,26.08
2019-02-21T14:24:22.875Z,27.37
2019-02-21T14:26:48.730Z,23.78
2019-02-21T14:29:14.668Z,25.87
2019-02-21T14:31:40.620Z,27.80
2019-02-21T14:34:06.668Z,28.02
2019-02-21T14:36:32.666Z,28.20
2019-02-21T14:38:58.549Z,30.15
2019-02-21T14:41:24.381Z,24.45
2019-02-21T14:43:50.515Z,24.40
2019-02-21T14:46:16.377Z,27.66
2019-02-21T14:48:42.252Z,23.21
2019-02-21T14:51:08.232Z,23.84
2019-02-21T14:53:34.095Z,24.83
2019-02-21T14:56:00.069Z,24.15
2019-02-21T14:58:26.013Z,29.02
2019-02-21T15:00:51.881Z,26.44
2019-02-21T15:03:21.904Z,27.03
2019-02-21T15:05:45.727Z,27.40
2019-02-21T15:08:11.594Z,27.43
2019-02-21T15:10:37.442Z,27.02
2019-02-21T15:13:03.365Z,23.45
2019-02-21T15:15:29.460Z,25.67
2019-02-21T15:18:06.573Z,25.33
2019-02-21T15:20:23.382Z,25.50
2019-02-21T15:22:49.287Z,21.77
2019-02-21T15:25:15.236Z,22.76
2019-02-21T15:27:41.254Z,24.47
2019-02-21T15:30:10.712Z,22.97
2019-02-21T15:32:37.777Z,19.02
2019-02-21T15:35:04.238Z,17.74
2019-02-21T15:37:30.189Z,16.91
2019-02-21T15:39:56.013Z,17.05
2019-02-21T15:42:22.000Z,16.32
2019-02-21T15:44:47.859Z,15.65
2019-02-21T15:47:13.688Z,15.38
2019-02-21T15:49:39.564Z,15.45
2019-02-21T15:52:05.598Z,15.61
2019-02-21T15:54:31.473Z,15.36
2019-02-21T15:56:57.342Z,14.88
2019-02-21T15:59:23.191Z,14.71
2019-02-21T16:01:49.385Z,14.69
2019-02-21T16:04:15.352Z,14.64
2019-02-21T16:06:51.142Z,14.66
2019-02-21T16:09:16.226Z,14.14
2019-02-21T16:11:36.862Z,13.99
2019-02-21T16:14:03.714Z,13.91
2019-02-21T16:16:29.874Z,13.92
2019-02-21T16:18:59.189Z,13.75
2019-02-21T16:21:25.256Z,13.73
2019-02-21T16:23:51.258Z,13.68
2019-02-21T16:26:17.315Z,13.58
2019-02-21T16:28:43.287Z,13.39
2019-02-21T16:31:09.120Z,13.31
2019-02-21T16:33:35.019Z,13.18
2019-02-21T16:36:01.190Z,12.92
2019-02-21T16:38:27.132Z,12.92
2019-02-21T16:40:53.031Z,12.81
2019-02-21T16:43:19.806Z,12.62
2019-02-21T16:45:47.152Z,12.59
2019-02-21T16:48:13.525Z,12.56
2019-02-21T16:50:39.339Z,12.49
2019-02-21T16:53:05.194Z,12.37
2019-02-21T16:55:31.367Z,12.36
2019-02-21T16:57:57.352Z,12.19
2019-02-21T17:00:23.831Z,11.87
2019-02-21T17:02:49.969Z,11.61
2019-02-21T17:05:15.805Z,11.49
2019-02-21T17:07:41.891Z,11.40
2019-02-21T17:10:10.723Z,11.61
2019-02-21T17:12:37.176Z,11.41
2019-02-21T17:15:05.643Z,11.22
2019-02-21T17:17:31.522Z,11.06
2019-02-21T17:19:57.455Z,10.92
2019-02-21T17:22:23.409Z,10.99
2019-02-21T17:24:49.280Z,10.85
2019-02-21T17:27:15.166Z,10.84
2019-02-21T17:29:41.054Z,10.66
2019-02-21T17:32:06.891Z,10.64
2019-02-21T17:34:32.721Z,10.62
2019-02-21T17:36:58.584Z,10.48
2019-02-21T17:39:24.547Z,10.27
2019-02-21T17:41:50.902Z,10.27
2019-02-21T17:44:16.735Z,10.39
2019-02-21T17:46:42.710Z,10.41
2019-02-21T17:49:08.544Z,10.35
2019-02-21T17:51:34.493Z,10.19
2019-02-21T17:54:00.556Z,10.19
2019-02-21T17:56:26.485Z,10.08
2019-02-21T17:58:52.442Z,10.09
2019-02-21T18:01:18.297Z,9.97
2019-02-21T18:03:44.325Z,9.98
2019-02-21T18:06:10.247Z,9.89
2019-02-21T18:08:36.074Z,9.82
2019-02-21T18:11:02.045Z,9.74
2019-02-21T18:13:28.371Z,9.57
2019-02-21T18:15:54.404Z,9.51
2019-02-21T18:18:20.368Z,9.42
2019-02-21T18:20:46.381Z,9.47
2019-02-21T18:23:12.547Z,9.53
2019-02-21T18:25:47.803Z,9.34
2019-02-21T18:28:13.762Z,9.25
2019-02-21T18:30:39.681Z,9.22
2019-02-21T18:33:05.782Z,9.13
2019-02-21T18:35:31.857Z,9.21
2019-02-21T18:37:57.769Z,9.03
2019-02-21T18:40:25.002Z,8.95
2019-02-21T18:42:51.051Z,8.85
2019-02-21T18:45:16.990Z,8.97
2019-02-21T18:47:43.129Z,8.98
2019-02-21T18:50:10.770Z,8.90
2019-02-21T18:52:36.706Z,8.91
2019-02-21T18:55:04.279Z,8.87
2019-02-21T18:57:30.281Z,8.84
2019-02-21T18:59:56.199Z,8.76
2019-02-21T19:02:22.134Z,8.68
2019-02-21T19:04:48.064Z,8.73
2019-02-21T19:07:14.063Z,8.74
2019-02-21T19:09:39.894Z,8.75
2019-02-21T19:12:05.993Z,8.69
2019-02-21T19:14:31.835Z,8.63
2019-02-21T19:16:57.766Z,8.56
2019-02-21T19:19:23.765Z,8.53
2019-02-21T19:21:49.868Z,8.48
2019-02-21T19:24:17.733Z,8.42
2019-02-21T19:26:43.624Z,8.41
2019-02-21T19:29:09.564Z,8.44
2019-02-21T19:31:35.522Z,8.39
2019-02-21T19:34:01.699Z,8.45
2019-02-21T19:36:27.545Z,8.52
2019-02-21T19:38:53.489Z,8.60
2019-02-21T19:41:19.514Z,8.51
2019-02-21T19:43:45.531Z,8.49
2019-02-21T19:46:11.585Z,8.36
2019-02-21T19:48:37.586Z,8.36
2019-02-21T19:51:03.823Z,8.30
2019-02-21T19:53:29.898Z,8.27
2019-02-21T19:55:55.908Z,8.19
2019-02-21T19:58:21.743Z,8.08
2019-02-21T20:00:48.101Z,8.00
2019-02-21T20:03:14.043Z,7.92
2019-02-21T20:05:40.086Z,7.77
2019-02-21T20:08:08.969Z,7.77
2019-02-21T20:10:33.930Z,7.81
2019-02-21T20:13:01.761Z,7.73
2019-02-21T20:15:27.710Z,7.75
2019-02-21T20:17:53.913Z,7.85
2019-02-21T20:20:25.375Z,7.89
2019-02-21T20:22:51.427Z,7.96
2019-02-21T20:25:17.483Z,7.91
2019-02-21T20:27:43.441Z,7.87
2019-02-21T20:30:12.434Z,7.83
2019-02-21T20:32:38.519Z,7.58
2019-02-21T20:35:04.801Z,7.56
2019-02-21T20:37:30.719Z,7.49
2019-02-21T20:39:56.786Z,7.58
2019-02-21T20:42:24.581Z,7.67
2019-02-21T20:44:50.629Z,7.61
2019-02-21T20:47:16.675Z,7.50
2019-02-21T20:49:42.596Z,7.33
2019-02-21T20:52:08.490Z,7.31
2019-02-21T20:54:34.518Z,7.38
2019-02-21T20:57:00.552Z,7.33
2019-02-21T20:59:26.510Z,7.42
2019-02-21T21:01:52.449Z,7.42
2019-02-21T21:04:18.323Z,7.39
2019-02-21T21:06:44.413Z,7.37
2019-02-21T21:09:10.811Z,7.45
2019-02-21T21:11:36.855Z,7.46
2019-02-21T21:14:02.868Z,7.48
2019-02-21T21:16:28.719Z,7.39
2019-02-21T21:18:54.555Z,7.43
2019-02-21T21:21:20.555Z,7.28
2019-02-21T21:23:49.260Z,7.18
2019-02-21T21:26:19.163Z,7.16
2019-02-21T21:28:45.019Z,7.28
2019-02-21T21:31:10.956Z,7.35
2019-02-21T21:33:36.813Z,7.29
2019-02-21T21:36:02.880Z,7.17
2019-02-21T21:38:30.469Z,7.03
2019-02-21T21:40:56.402Z,6.89
2019-02-21T21:43:23.214Z,6.84
2019-02-21T21:45:49.299Z,6.79
2019-02-21T21:48:15.235Z,6.70
2019-02-21T21:50:41.271Z,6.67
2019-02-21T21:53:07.270Z,6.79
2019-02-21T21:55:33.127Z,6.86
2019-02-21T21:57:59.086Z,6.75
2019-02-21T22:00:25.148Z,6.76
2019-02-21T22:02:51.200Z,6.70
2019-02-21T22:05:17.123Z,6.73
2019-02-21T22:07:43.200Z,6.73
2019-02-21T22:10:10.856Z,6.77
2019-02-21T22:12:36.720Z,6.71
2019-02-21T22:15:05.050Z,6.79
2019-02-21T22:17:30.904Z,6.79
2019-02-21T22:19:56.815Z,6.81
2019-02-21T22:22:22.664Z,6.79
2019-02-21T22:24:48.460Z,6.75
2019-02-21T22:27:14.446Z,6.84
2019-02-21T22:29:40.226Z,6.80
2019-02-21T22:32:06.203Z,6.76
2019-02-21T22:34:32.091Z,6.66
2019-02-21T22:36:57.902Z,6.73
2019-02-21T22:39:23.826Z,6.66
2019-02-21T22:41:50.188Z,6.64
2019-02-21T22:44:16.028Z,6.60
2019-02-21T22:46:42.061Z,6.48
2019-02-21T22:49:07.891Z,6.46
2019-02-21T22:51:33.750Z,6.58
2019-02-21T22:53:59.627Z,6.51
2019-02-21T22:56:25.603Z,6.68
2019-02-21T22:58:51.539Z,6.73
2019-02-21T23:01:24.291Z,6.66
2019-02-21T23:03:53.549Z,6.45
2019-02-21T23:06:32.523Z,6.40
2019-02-21T23:08:58.469Z,6.33
2019-02-21T23:11:24.533Z,6.30
2019-02-21T23:13:50.610Z,6.42
2019-02-21T23:16:16.557Z,6.50
2019-02-21T23:18:42.608Z,6.64
2019-02-21T23:21:08.711Z,6.56
2019-02-21T23:23:34.646Z,6.54
2019-02-21T23:26:00.682Z,6.39
2019-02-21T23:28:29.939Z,6.23
2019-02-21T23:30:55.761Z,6.36
2019-02-21T23:33:23.187Z,6.26
2019-02-21T23:35:49.085Z,6.24
2019-02-21T23:38:15.016Z,6.14
2019-02-21T23:40:41.056Z,6.13
2019-02-21T23:43:07.086Z,6.16
2019-02-21T23:45:33.124Z,6.10
2019-02-21T23:47:59.063Z,6.20
2019-02-21T23:50:25.146Z,6.25
2019-02-21T23:52:51.013Z,6.08
2019-02-21T23:55:16.912Z,6.07
2019-02-21T23:57:42.763Z,6.25
